Time;durP1;ratioP1;P1;durP2;ratioP2;P2;SDS_P1;SDS_P2;PMS_P1;PMS_P2;Temp;Humidity;BMP_temperature;BMP_pressure;BME280_temperature;BME280_humidity;BME280_pressure;Samples;Min_cycle;Max_cycle;Signal;HPM_P1;HPM_P2
2022/08/10 00:02:39;;;;;;;;;;;14.80;99.90;;;;;;4961868;28;20118;-67
2022/08/10 00:05:05;;;;;;;5.33;4.60;;;14.70;99.90;;;;;;4959243;28;20057;-67
2022/08/10 00:07:31;;;;;;;4.77;4.13;;;14.70;99.90;;;;;;4960678;28;20047;-67
2022/08/10 00:09:58;;;;;;;4.47;4.07;;;14.70;99.90;;;;;;4950604;28;20058;-67
2022/08/10 00:12:24;;;;;;;5.27;4.77;;;14.60;99.90;;;;;;4957183;28;20038;-67
2022/08/10 00:14:50;;;;;;;6.43;4.40;;;14.60;99.90;;;;;;4977397;28;20411;-67
2022/08/10 00:17:16;;;;;;;6.60;4.53;;;14.60;99.90;;;;;;4956424;28;20046;-66
2022/08/10 00:19:41;;;;;;;5.13;4.03;;;14.60;99.90;;;;;;4976813;28;20053;-66
2022/08/10 00:22:07;;;;;;;3.83;3.43;;;14.60;99.90;;;;;;4961393;28;20031;-66
2022/08/10 00:24:33;;;;;;;3.93;3.60;;;14.50;99.90;;;;;;4979079;28;20126;-66
2022/08/10 00:27:00;;;;;;;4.73;4.33;;;14.50;99.90;;;;;;4978412;28;20042;-66
2022/08/10 00:29:25;;;;;;;4.70;4.13;;;14.50;99.90;;;;;;4974386;28;20082;-66
2022/08/10 00:31:51;;;;;;;5.27;4.23;;;14.50;99.90;;;;;;4961895;28;20074;-66
2022/08/10 00:34:17;;;;;;;5.87;5.27;;;14.50;99.90;;;;;;4963435;28;20485;-66
2022/08/10 00:36:43;;;;;;;5.40;4.90;;;14.50;99.90;;;;;;4958427;28;20042;-66
2022/08/10 00:39:08;;;;;;;5.93;4.60;;;14.50;99.90;;;;;;4960376;28;20046;-66
2022/08/10 00:41:34;;;;;;;5.53;4.90;;;14.40;99.90;;;;;;4962411;28;20479;-66
2022/08/10 00:44:01;;;;;;;5.73;4.43;;;14.40;99.90;;;;;;4967190;28;20050;-66
2022/08/10 00:46:27;;;;;;;5.27;4.73;;;14.40;99.90;;;;;;4969963;28;20460;-66
2022/08/10 00:48:53;;;;;;;4.30;3.90;;;14.40;99.90;;;;;;4977882;28;20054;-66
2022/08/10 00:51:19;;;;;;;6.20;4.50;;;14.40;99.90;;;;;;4972822;28;20039;-66
2022/08/10 00:53:44;;;;;;;6.27;4.77;;;14.30;99.90;;;;;;4964134;28;20050;-67
2022/08/10 00:56:10;;;;;;;5.60;5.10;;;14.30;99.90;;;;;;4968170;28;20042;-66
2022/08/10 00:58:37;;;;;;;6.07;5.40;;;14.30;99.90;;;;;;4947633;28;20042;-66
2022/08/10 01:01:06;;;;;;;5.80;5.13;;;14.20;99.90;;;;;;4951636;28;20051;-66
2022/08/10 01:03:32;;;;;;;4.43;4.03;;;14.20;99.90;;;;;;4964363;28;20051;-66
2022/08/10 01:06:03;;;;;;;5.80;5.23;;;14.20;99.90;;;;;;4956420;28;20480;-67
2022/08/10 01:08:35;;;;;;;6.30;5.70;;;14.20;99.90;;;;;;4957709;28;20075;-66
2022/08/10 01:11:07;;;;;;;6.37;4.93;;;14.20;99.90;;;;;;4963918;28;20046;-66
2022/08/10 01:13:40;;;;;;;5.80;5.30;;;14.10;99.90;;;;;;4962843;28;20125;-66
2022/08/10 01:16:14;;;;;;;6.90;5.43;;;14.10;99.90;;;;;;4956329;28;20524;-66
2022/08/10 01:18:47;;;;;;;5.50;5.00;;;14.10;99.90;;;;;;4959735;28;20094;-66
2022/08/10 01:21:55;;;;;;;5.75;5.13;;;14.10;99.90;;;;;;4979760;28;20587;-66
2022/08/10 01:24:41;;;;;;;5.70;4.80;;;14.00;99.90;;;;;;4920245;28;20107;-66
2022/08/10 01:27:20;;;;;;;6.87;4.77;;;14.00;99.90;;;;;;4963968;28;20415;-66
2022/08/10 01:29:56;;;;;;;8.83;5.10;;;14.00;99.90;;;;;;4976681;28;20039;-66
2022/08/10 01:32:30;;;;;;;5.73;4.90;;;14.00;99.90;;;;;;4955100;28;20042;-66
2022/08/10 01:35:02;;;;;;;7.28;4.97;;;13.90;99.90;;;;;;4971186;28;20039;-66
2022/08/10 01:37:32;;;;;;;8.47;5.47;;;13.90;99.90;;;;;;4959407;28;20499;-66
2022/08/10 01:40:00;;;;;;;6.53;5.67;;;13.90;99.90;;;;;;4960564;28;20416;-66
2022/08/10 01:42:32;;;;;;;7.90;4.67;;;13.90;99.90;;;;;;4967963;28;20423;-66
2022/08/10 01:45:02;;;;;;;6.10;5.50;;;13.80;99.90;;;;;;4975172;28;20046;-65
2022/08/10 01:50:21;;;;;;;6.90;6.20;;;13.80;99.90;;;;;;4960491;28;20050;-66
2022/08/10 01:52:51;;;;;;;8.00;6.60;;;13.70;99.90;;;;;;4964571;28;20046;-66
2022/08/10 01:55:18;;;;;;;5.63;5.07;;;13.70;99.90;;;;;;4949313;28;20049;-66
2022/08/10 01:57:45;;;;;;;7.50;6.60;;;13.70;99.90;;;;;;4961595;28;20060;-66
2022/08/10 02:00:13;;;;;;;7.83;7.03;;;13.70;99.90;;;;;;4946504;28;20043;-66
2022/08/10 02:02:42;;;;;;;7.40;6.13;;;13.70;99.90;;;;;;4948248;28;20047;-66
2022/08/10 02:05:08;;;;;;;8.70;7.80;;;13.70;99.90;;;;;;4951931;28;20046;-66
2022/08/10 02:07:36;;;;;;;6.70;5.77;;;13.80;99.90;;;;;;4974959;28;20057;-66
2022/08/10 02:10:07;;;;;;;5.20;4.57;;;13.80;99.90;;;;;;4958388;28;20062;-66
2022/08/10 02:12:34;;;;;;;8.07;6.87;;;13.80;99.90;;;;;;4952021;28;20133;-65
2022/08/10 02:15:02;;;;;;;7.80;6.97;;;13.80;99.90;;;;;;4959444;28;20050;-66
2022/08/10 02:17:34;;;;;;;7.33;6.67;;;13.80;99.90;;;;;;4960643;28;20045;-66
2022/08/10 02:20:04;;;;;;;8.57;7.17;;;13.80;99.90;;;;;;4957656;28;20078;-66
2022/08/10 02:22:31;;;;;;;8.67;6.80;;;13.90;99.90;;;;;;4972430;28;20110;-66
2022/08/10 02:25:00;;;;;;;9.90;8.47;;;13.80;99.90;;;;;;4953817;28;20175;-66
2022/08/10 02:27:27;;;;;;;9.30;7.97;;;13.90;99.90;;;;;;4959813;28;20113;-66
2022/08/10 02:29:54;;;;;;;11.80;9.67;;;13.90;99.90;;;;;;4966203;28;20137;-65
2022/08/10 02:32:24;;;;;;;14.17;9.30;;;13.90;99.90;;;;;;4961273;28;20100;-66
2022/08/10 02:34:53;;;;;;;10.67;8.73;;;13.90;99.90;;;;;;4968573;28;20053;-66
2022/08/10 02:37:23;;;;;;;10.53;9.10;;;13.90;99.90;;;;;;4960804;28;20315;-66
2022/08/10 02:39:49;;;;;;;9.87;8.57;;;13.90;99.90;;;;;;4962687;28;20447;-67
2022/08/10 02:42:22;;;;;;;11.53;9.77;;;14.00;99.90;;;;;;4952464;28;20045;-67
2022/08/10 02:44:54;;;;;;;9.73;8.45;;;14.00;99.90;;;;;;4960646;28;20503;-67
2022/08/10 02:47:27;;;;;;;10.33;9.23;;;14.00;99.90;;;;;;4964452;28;20042;-67
2022/08/10 02:50:02;;;;;;;11.17;9.33;;;14.00;99.90;;;;;;4953020;28;20062;-67
2022/08/10 02:52:34;;;;;;;11.13;9.10;;;14.00;99.90;;;;;;4954447;28;20069;-67
2022/08/10 02:55:04;;;;;;;11.33;9.10;;;14.00;99.90;;;;;;4954384;28;20051;-67
2022/08/10 02:57:36;;;;;;;10.93;8.40;;;14.00;99.90;;;;;;4959306;28;20046;-67
2022/08/10 03:00:06;;;;;;;9.37;8.37;;;14.10;99.90;;;;;;4953776;28;20065;-67
2022/08/10 03:02:35;;;;;;;10.10;9.10;;;14.10;99.90;;;;;;4956806;28;20057;-67
2022/08/10 03:05:07;;;;;;;12.10;9.37;;;14.10;99.90;;;;;;4958453;28;20496;-67
2022/08/10 03:07:37;;;;;;;9.30;8.43;;;14.10;99.90;;;;;;4958316;28;20482;-67
2022/08/10 03:10:06;;;;;;;11.70;9.00;;;14.10;99.90;;;;;;4957928;28;20053;-67
2022/08/10 03:12:34;;;;;;;9.57;8.20;;;14.10;99.90;;;;;;4975796;28;20050;-67
2022/08/10 03:15:01;;;;;;;8.80;7.90;;;14.10;99.90;;;;;;4968576;28;20103;-67
2022/08/10 03:17:28;;;;;;;11.73;8.20;;;14.10;99.90;;;;;;4958872;28;20049;-67
2022/08/10 03:19:56;;;;;;;10.93;8.87;;;14.00;99.90;;;;;;4966852;28;20049;-67
2022/08/10 03:22:24;;;;;;;9.73;7.87;;;14.00;99.90;;;;;;4956536;28;20045;-67
2022/08/10 03:24:51;;;;;;;13.90;9.47;;;14.00;99.90;;;;;;4973227;28;20129;-67
2022/08/10 03:27:17;;;;;;;8.63;7.43;;;14.00;99.90;;;;;;4957679;28;21853;-67
2022/08/10 03:29:43;;;;;;;11.40;9.07;;;14.00;99.90;;;;;;4966643;28;20639;-67
2022/08/10 03:32:11;;;;;;;8.93;8.03;;;14.00;99.90;;;;;;4970481;28;20130;-67
2022/08/10 03:34:39;;;;;;;10.63;8.77;;;14.00;99.90;;;;;;4974042;28;20043;-67
2022/08/10 03:37:04;;;;;;;9.27;8.20;;;14.00;99.90;;;;;;4962769;28;20116;-67
2022/08/10 03:39:32;;;;;;;12.10;8.87;;;14.00;99.90;;;;;;4958589;28;20168;-67
2022/08/10 03:42:01;;;;;;;10.57;8.37;;;14.00;99.90;;;;;;4958239;28;20061;-67
2022/08/10 03:44:31;;;;;;;13.03;9.93;;;14.00;99.90;;;;;;4959590;28;20061;-67
2022/08/10 03:46:59;;;;;;;12.87;9.40;;;14.00;99.90;;;;;;4958290;28;20416;-67
2022/08/10 03:49:27;;;;;;;10.67;8.50;;;14.00;99.90;;;;;;4957791;28;20042;-67
2022/08/10 03:51:54;;;;;;;10.10;7.90;;;14.00;99.90;;;;;;4950327;28;20419;-67
2022/08/10 03:54:20;;;;;;;9.50;8.37;;;13.90;99.90;;;;;;4957370;28;20420;-67
2022/08/10 03:56:47;;;;;;;9.23;7.10;;;13.90;99.90;;;;;;4963188;28;20050;-67
2022/08/10 03:59:16;;;;;;;8.43;7.53;;;13.90;99.90;;;;;;4974531;28;20047;-67
2022/08/10 04:01:43;;;;;;;9.70;7.87;;;13.90;99.90;;;;;;4956099;28;20046;-66
2022/08/10 04:04:09;;;;;;;9.43;8.33;;;13.90;99.90;;;;;;4953767;28;20069;-67
2022/08/10 04:06:35;;;;;;;8.17;6.63;;;13.90;99.90;;;;;;4975652;28;20051;-66
2022/08/10 04:09:02;;;;;;;9.23;7.07;;;13.90;99.90;;;;;;4952741;28;20049;-66
2022/08/10 04:11:28;;;;;;;7.20;6.50;;;13.90;99.90;;;;;;4960879;28;20053;-67
2022/08/10 04:13:55;;;;;;;5.93;5.40;;;13.90;99.90;;;;;;4964444;28;20043;-67
2022/08/10 04:16:21;;;;;;;9.37;6.20;;;13.90;99.90;;;;;;4958670;28;20047;-66
2022/08/10 04:18:46;;;;;;;8.43;7.30;;;13.90;99.90;;;;;;4952984;28;20519;-67
2022/08/10 04:21:17;;;;;;;7.33;6.40;;;13.80;99.90;;;;;;4954103;28;20066;-66
2022/08/10 04:23:46;;;;;;;7.20;5.83;;;13.80;99.90;;;;;;4962218;28;20038;-66
2022/08/10 04:26:12;;;;;;;7.17;5.43;;;13.80;99.90;;;;;;4961171;28;20496;-67
2022/08/10 04:28:38;;;;;;;7.03;6.23;;;13.80;99.90;;;;;;4963899;28;20093;-66
2022/08/10 04:31:07;;;;;;;8.77;7.87;;;13.80;99.90;;;;;;4958668;28;20051;-66
2022/08/10 04:33:36;;;;;;;8.70;6.70;;;13.80;99.90;;;;;;4977232;28;20570;-67
2022/08/10 04:36:04;;;;;;;6.80;6.20;;;13.80;99.90;;;;;;4954102;28;20090;-66
2022/08/10 04:38:32;;;;;;;6.63;5.90;;;13.80;99.90;;;;;;4965090;28;20411;-67
2022/08/10 04:40:58;;;;;;;8.03;6.30;;;13.90;99.90;;;;;;4956946;28;20177;-66
2022/08/10 04:43:24;;;;;;;8.80;7.77;;;13.80;99.90;;;;;;4959093;28;20038;-66
2022/08/10 04:45:50;;;;;;;8.03;6.97;;;13.90;99.90;;;;;;4977767;28;20058;-66
2022/08/10 04:48:19;;;;;;;9.43;7.90;;;13.90;99.90;;;;;;4962214;28;20086;-66
2022/08/10 04:50:44;;;;;;;9.40;7.30;;;13.90;99.90;;;;;;4961220;28;20060;-66
2022/08/10 04:53:10;;;;;;;9.87;7.17;;;13.90;99.90;;;;;;4962228;28;20891;-66
2022/08/10 04:55:36;;;;;;;10.90;8.00;;;14.00;99.90;;;;;;4969511;28;20506;-66
2022/08/10 04:58:02;;;;;;;9.47;7.33;;;14.00;99.90;;;;;;4976172;28;20042;-66
2022/08/10 05:00:28;;;;;;;12.03;8.30;;;14.10;99.90;;;;;;4961929;28;20050;-66
2022/08/10 05:02:54;;;;;;;11.33;8.50;;;14.10;99.90;;;;;;4959311;28;20049;-67
2022/08/10 05:05:21;;;;;;;12.27;8.80;;;14.20;99.90;;;;;;4959201;28;20132;-66
2022/08/10 05:07:47;;;;;;;8.80;7.23;;;14.20;99.90;;;;;;4970303;28;20066;-66
2022/08/10 05:10:12;;;;;;;9.87;8.27;;;14.30;99.90;;;;;;4957122;28;20038;-66
2022/08/10 05:12:38;;;;;;;7.43;6.60;;;14.30;99.90;;;;;;4975140;28;20568;-67
2022/08/10 05:15:06;;;;;;;9.27;7.53;;;14.40;99.90;;;;;;4983531;28;20676;-66
2022/08/10 05:17:32;;;;;;;8.70;7.13;;;14.40;99.90;;;;;;4960060;28;20518;-66
2022/08/10 05:19:58;;;;;;;8.33;7.30;;;14.40;99.90;;;;;;4946690;28;20137;-66
2022/08/10 05:22:26;;;;;;;9.17;8.23;;;14.40;99.90;;;;;;4952660;28;20125;-66
2022/08/10 05:24:51;;;;;;;11.83;8.93;;;14.50;99.90;;;;;;4965784;28;20523;-66
2022/08/10 05:27:17;;;;;;;10.60;8.13;;;14.50;99.90;;;;;;4961702;28;20047;-67
2022/08/10 05:29:43;;;;;;;15.87;11.13;;;14.60;99.90;;;;;;4958658;28;20046;-66
2022/08/10 05:32:09;;;;;;;14.63;11.13;;;14.60;99.90;;;;;;4960946;28;20042;-66
2022/08/10 05:34:35;;;;;;;9.43;8.47;;;14.70;99.90;;;;;;4977647;28;20128;-67
2022/08/10 05:37:01;;;;;;;13.53;10.57;;;14.70;99.90;;;;;;4945699;28;20129;-67
2022/08/10 05:39:29;;;;;;;11.43;8.60;;;14.80;99.90;;;;;;4955571;28;20046;-66
2022/08/10 05:41:54;;;;;;;13.27;10.93;;;14.90;99.90;;;;;;4959868;28;20061;-67
2022/08/10 05:44:21;;;;;;;15.23;10.53;;;15.00;99.90;;;;;;4937526;28;20046;-66
2022/08/10 05:46:47;;;;;;;11.97;10.50;;;15.10;99.90;;;;;;4963779;28;20365;-67
2022/08/10 05:49:13;;;;;;;16.90;11.23;;;15.20;99.90;;;;;;4978416;28;20054;-67
2022/08/10 05:51:40;;;;;;;17.60;11.40;;;15.30;99.90;;;;;;4974956;28;20053;-66
2022/08/10 05:54:13;;;;;;;15.30;10.77;;;15.40;99.90;;;;;;4951818;28;21970;-67
2022/08/10 05:56:42;;;;;;;17.30;12.07;;;15.50;99.90;;;;;;4958969;28;20122;-67
2022/08/10 05:59:08;;;;;;;13.07;10.43;;;15.60;99.90;;;;;;4960208;28;20225;-67
2022/08/10 06:01:38;;;;;;;16.67;10.00;;;15.70;99.90;;;;;;4942229;28;20313;-67
2022/08/10 06:04:06;;;;;;;14.13;11.17;;;15.80;99.90;;;;;;4944076;28;20049;-67
2022/08/10 06:06:34;;;;;;;15.13;10.67;;;15.90;99.90;;;;;;4966625;28;20052;-67
2022/08/10 06:09:01;;;;;;;13.40;9.83;;;16.00;99.90;;;;;;4966482;28;20046;-67
2022/08/10 06:11:29;;;;;;;14.17;9.43;;;16.10;99.90;;;;;;4957567;28;20136;-67
2022/08/10 06:16:44;;;;;;;14.27;9.43;;;16.40;99.90;;;;;;4977254;28;20055;-67
2022/08/10 06:19:10;;;;;;;12.20;9.40;;;16.50;99.90;;;;;;4955277;28;20069;-67
2022/08/10 06:21:37;;;;;;;11.23;8.97;;;16.50;99.90;;;;;;4955032;28;20054;-68
2022/08/10 06:24:05;;;;;;;15.10;8.90;;;16.60;99.90;;;;;;4951792;28;20054;-67
2022/08/10 06:26:31;;;;;;;12.10;8.60;;;16.80;99.90;;;;;;4956148;28;20570;-67
2022/08/10 06:29:01;;;;;;;11.93;9.80;;;16.80;99.90;;;;;;4958692;28;20042;-67
2022/08/10 06:31:29;;;;;;;13.10;8.60;;;16.80;99.90;;;;;;4952541;28;20062;-67
2022/08/10 06:33:56;;;;;;;11.13;8.83;;;16.90;99.90;;;;;;4975751;28;20064;-67
2022/08/10 06:36:25;;;;;;;9.93;8.23;;;17.00;99.90;;;;;;4959317;28;20039;-68
2022/08/10 06:38:52;;;;;;;12.50;9.43;;;17.10;99.90;;;;;;4963646;28;20169;-67
2022/08/10 06:41:22;;;;;;;9.07;8.07;;;17.20;99.90;;;;;;4946118;28;20053;-68
2022/08/10 06:43:54;;;;;;;13.30;9.17;;;17.30;99.90;;;;;;4978195;28;20062;-67
2022/08/10 06:46:23;;;;;;;14.97;8.83;;;17.40;99.90;;;;;;4961613;28;20046;-67
2022/08/10 06:48:51;;;;;;;12.20;9.30;;;17.50;99.90;;;;;;4974917;28;20145;-68
2022/08/10 06:51:22;;;;;;;13.13;8.20;;;17.60;99.90;;;;;;4950319;28;20064;-68
2022/08/10 06:53:51;;;;;;;13.53;8.93;;;17.70;99.90;;;;;;4959234;28;20096;-68
2022/08/10 06:56:20;;;;;;;12.63;8.20;;;17.80;99.90;;;;;;4958611;28;20062;-67
2022/08/10 06:58:51;;;;;;;8.90;8.00;;;17.90;99.90;;;;;;4949923;28;20447;-68
2022/08/10 07:01:23;;;;;;;11.73;7.83;;;18.00;99.90;;;;;;4975745;28;20049;-68
2022/08/10 07:03:56;;;;;;;9.43;7.47;;;18.00;99.90;;;;;;4963803;28;20054;-68
2022/08/10 07:06:23;;;;;;;8.90;7.57;;;18.10;99.90;;;;;;4966591;28;20035;-68
2022/08/10 07:08:50;;;;;;;11.23;8.17;;;18.20;99.90;;;;;;4950303;28;20046;-67
2022/08/10 07:11:18;;;;;;;10.23;7.47;;;18.30;99.90;;;;;;4962478;28;20042;-68
2022/08/10 07:13:46;;;;;;;9.27;7.50;;;18.50;99.90;;;;;;4966017;28;20125;-68
2022/08/10 07:16:13;;;;;;;8.70;7.13;;;18.50;99.90;;;;;;4958672;28;20054;-68
2022/08/10 07:18:41;;;;;;;9.20;7.43;;;18.60;99.90;;;;;;4975644;28;20113;-68
2022/08/10 07:21:08;;;;;;;8.40;7.60;;;18.60;99.90;;;;;;4966809;28;20495;-68
2022/08/10 07:23:36;;;;;;;11.87;7.90;;;18.60;99.90;;;;;;4967031;28;20405;-68
2022/08/10 07:26:02;;;;;;;14.23;7.17;;;18.60;99.90;;;;;;4960774;28;20484;-68
2022/08/10 07:28:30;;;;;;;8.50;7.07;;;18.70;99.90;;;;;;4965506;28;20134;-68
2022/08/10 07:30:58;;;;;;;8.67;6.13;;;18.70;99.90;;;;;;4965476;28;20121;-68
2022/08/10 07:33:25;;;;;;;7.77;6.60;;;18.80;99.90;;;;;;4970807;28;20057;-68
2022/08/10 07:35:54;;;;;;;11.27;7.87;;;18.80;99.90;;;;;;4963735;28;20069;-68
2022/08/10 07:38:24;;;;;;;9.27;6.10;;;18.90;99.90;;;;;;4952836;28;20058;-68
2022/08/10 07:40:51;;;;;;;8.87;6.43;;;19.00;99.90;;;;;;4952853;28;20043;-68
2022/08/10 07:43:21;;;;;;;8.03;6.47;;;19.00;99.90;;;;;;4970943;28;20050;-68
2022/08/10 07:45:47;;;;;;;10.67;6.30;;;19.10;99.90;;;;;;4963245;28;20050;-68
2022/08/10 07:48:16;;;;;;;11.33;5.87;;;19.20;99.90;;;;;;4971566;28;20105;-68
2022/08/10 07:50:43;;;;;;;6.53;5.37;;;19.20;99.90;;;;;;4982351;28;20462;-68
2022/08/10 07:53:15;;;;;;;9.90;5.90;;;19.20;99.90;;;;;;4972019;28;20125;-68
2022/08/10 07:55:45;;;;;;;6.67;5.73;;;19.30;99.90;;;;;;4966839;28;20046;-68
2022/08/10 07:58:14;;;;;;;8.87;5.33;;;19.40;99.90;;;;;;4954741;28;20046;-68
2022/08/10 08:00:42;;;;;;;11.17;5.53;;;19.40;99.90;;;;;;4971647;28;20057;-68
2022/08/10 08:03:11;;;;;;;8.40;5.03;;;19.50;99.90;;;;;;4971586;28;20038;-68
2022/08/10 08:05:39;;;;;;;13.53;4.97;;;19.60;99.90;;;;;;4966226;28;20133;-68
2022/08/10 08:08:06;;;;;;;13.57;5.07;;;19.70;99.90;;;;;;4967235;28;20175;-68
2022/08/10 08:10:36;;;;;;;11.17;5.07;;;19.70;99.90;;;;;;4969608;28;20125;-68
2022/08/10 08:13:03;;;;;;;6.07;4.30;;;19.80;99.90;;;;;;4965630;28;20080;-68
2022/08/10 08:15:30;;;;;;;5.97;4.70;;;19.90;99.90;;;;;;4970028;28;20491;-68
2022/08/10 08:17:59;;;;;;;6.10;4.93;;;20.00;99.90;;;;;;4969712;28;20054;-68
2022/08/10 08:20:25;;;;;;;11.40;4.87;;;20.10;99.90;;;;;;4986845;28;20069;-68
2022/08/10 08:22:52;;;;;;;5.67;4.27;;;20.20;99.90;;;;;;4970250;28;20183;-68
2022/08/10 08:25:19;;;;;;;9.30;4.63;;;20.30;99.90;;;;;;4970379;28;20121;-68
2022/08/10 08:27:51;;;;;;;7.23;4.47;;;20.40;99.90;;;;;;4966107;28;20053;-68
2022/08/10 08:30:19;;;;;;;11.13;5.27;;;20.50;99.90;;;;;;4958500;28;20515;-68
2022/08/10 08:32:47;;;;;;;6.77;4.63;;;20.60;99.90;;;;;;4968268;28;20054;-68
2022/08/10 08:35:32;;;;;;;6.27;4.13;;;20.70;99.90;;;;;;4989587;28;20423;-68
2022/08/10 08:37:59;;;;;;;10.20;3.80;;;20.70;99.90;;;;;;4971002;28;20480;-69
2022/08/10 08:40:29;;;;;;;6.97;3.20;;;20.80;99.90;;;;;;4982805;28;20120;-68
2022/08/10 08:43:30;;;;;;;7.20;3.13;;;20.90;99.90;;;;;;4957420;28;20068;-68
2022/08/10 08:46:33;;;;;;;6.20;2.90;;;21.10;99.90;;;;;;4969745;28;20046;-69
2022/08/10 08:49:15;;;;;;;5.30;3.67;;;21.20;99.90;;;;;;4968203;28;20120;-68
2022/08/10 08:51:52;;;;;;;6.10;2.70;;;21.40;99.90;;;;;;4972781;28;20046;-68
2022/08/10 08:54:32;;;;;;;5.57;2.80;;;21.50;99.90;;;;;;4984817;28;20043;-68
2022/08/10 08:57:04;;;;;;;8.90;2.67;;;21.60;99.90;;;;;;4972284;28;20396;-68
2022/08/10 08:59:46;;;;;;;7.60;2.73;;;21.90;99.90;;;;;;4968811;28;20042;-68
2022/08/10 09:02:32;;;;;;;4.70;2.20;;;22.10;99.90;;;;;;4967921;28;20451;-69
2022/08/10 09:05:07;;;;;;;4.28;2.53;;;22.20;99.90;;;;;;4967888;28;20526;-68
2022/08/10 09:08:13;;;;;;;5.22;2.00;;;22.30;99.90;;;;;;4970635;28;20050;-68
2022/08/10 09:10:49;;;;;;;7.60;2.22;;;22.40;99.90;;;;;;4974106;28;20069;-69
2022/08/10 09:13:25;;;;;;;5.60;2.33;;;22.60;99.90;;;;;;4951039;28;21087;-68
2022/08/10 09:16:07;;;;;;;3.47;2.28;;;22.90;99.90;;;;;;4966406;28;20402;-68
2022/08/10 09:18:40;;;;;;;4.95;2.40;;;23.00;99.90;;;;;;4987060;28;20096;-69
2022/08/10 09:21:14;;;;;;;7.28;2.90;;;23.20;99.90;;;;;;4981838;28;20049;-68
2022/08/10 09:23:46;;;;;;;4.82;2.90;;;23.30;99.90;;;;;;4967907;28;20066;-68
2022/08/10 09:26:18;;;;;;;4.65;2.50;;;23.40;99.90;;;;;;4972356;28;20038;-68
2022/08/10 09:28:44;;;;;;;3.65;2.00;;;23.60;99.90;;;;;;4968726;28;20074;-69
2022/08/10 09:31:14;;;;;;;5.75;2.47;;;23.70;99.90;;;;;;4952055;28;20046;-69
2022/08/10 09:33:47;;;;;;;6.57;2.45;;;24.00;99.90;;;;;;4965678;28;20052;-69
2022/08/10 09:36:22;;;;;;;5.53;2.38;;;24.30;99.90;;;;;;4970244;28;20038;-68
2022/08/10 09:38:57;;;;;;;7.22;2.60;;;24.40;99.90;;;;;;4971947;28;20256;-69
2022/08/10 09:41:32;;;;;;;4.72;2.08;;;24.70;99.90;;;;;;4978993;28;20066;-69
2022/08/10 09:44:07;;;;;;;4.47;2.35;;;24.90;99.90;;;;;;4967028;28;20137;-69
2022/08/10 09:46:49;;;;;;;5.43;2.20;;;25.30;99.90;;;;;;4969174;28;20137;-69
2022/08/10 09:49:20;;;;;;;4.10;2.00;;;26.10;99.90;;;;;;4970520;28;20474;-69
2022/08/10 09:51:56;;;;;;;8.18;2.38;;;26.90;98.90;;;;;;4984457;28;20066;-69
2022/08/10 09:54:44;;;;;;;4.65;2.55;;;27.50;97.00;;;;;;4981556;28;20408;-69
2022/08/10 09:57:18;;;;;;;7.60;2.30;;;28.10;95.20;;;;;;4983965;28;20491;-70
2022/08/10 09:59:53;;;;;;;7.57;2.08;;;29.00;95.00;;;;;;4984917;28;20514;-69
2022/08/10 10:02:27;;;;;;;6.60;1.80;;;29.90;91.70;;;;;;4965959;28;20043;-69
2022/08/10 10:05:11;;;;;;;4.07;1.40;;;30.50;89.60;;;;;;4969611;28;20050;-69
2022/08/10 10:07:52;;;;;;;6.10;1.52;;;31.10;89.50;;;;;;4966384;28;20038;-69
2022/08/10 10:10:25;;;;;;;5.55;1.35;;;31.30;85.90;;;;;;4978916;28;20049;-69
2022/08/10 10:12:57;;;;;;;5.22;1.40;;;31.80;83.50;;;;;;4968384;28;20042;-69
2022/08/10 10:15:32;;;;;;;5.50;1.30;;;32.40;77.70;;;;;;4972386;28;20038;-69
2022/08/10 10:18:16;;;;;;;3.22;1.20;;;33.00;74.60;;;;;;4971430;28;20161;-70
2022/08/10 10:20:52;;;;;;;6.30;1.23;;;33.50;74.50;;;;;;4965785;28;20058;-70
2022/08/10 10:23:31;;;;;;;5.50;1.30;;;33.80;71.30;;;;;;4953870;28;20062;-69
2022/08/10 10:26:03;;;;;;;2.63;1.00;;;34.00;65.50;;;;;;4969253;28;20039;-70
2022/08/10 10:28:41;;;;;;;2.67;1.00;;;34.30;64.80;;;;;;4965631;28;20046;-69
2022/08/10 10:31:14;;;;;;;2.80;1.10;;;34.80;63.30;;;;;;4972635;28;20090;-69
2022/08/10 10:33:55;;;;;;;2.25;0.90;;;35.00;59.30;;;;;;4985000;28;20061;-69
2022/08/10 10:36:22;;;;;;;3.33;0.98;;;34.90;58.60;;;;;;4988471;28;20046;-69
2022/08/10 10:38:50;;;;;;;2.70;1.10;;;35.00;57.90;;;;;;4967294;28;20527;-69
2022/08/10 10:41:30;;;;;;;2.72;1.15;;;34.90;57.10;;;;;;4967549;28;20129;-69
2022/08/10 10:44:04;;;;;;;1.10;0.85;;;34.70;54.90;;;;;;4954637;28;20061;-69
2022/08/10 10:46:43;;;;;;;3.10;1.08;;;34.50;55.50;;;;;;4965390;28;20046;-70
2022/08/10 10:49:21;;;;;;;2.50;0.90;;;34.30;54.80;;;;;;4950359;28;20510;-69
2022/08/10 10:51:57;;;;;;;5.93;1.10;;;34.50;55.10;;;;;;4986413;28;20065;-69
2022/08/10 10:54:34;;;;;;;4.28;1.05;;;34.50;53.10;;;;;;4982174;28;20046;-69
2022/08/10 10:57:06;;;;;;;6.38;1.27;;;34.30;52.70;;;;;;4969165;28;20419;-70
2022/08/10 10:59:41;;;;;;;2.15;1.10;;;34.20;53.60;;;;;;4985438;28;20050;-69
2022/08/10 11:02:17;;;;;;;3.67;1.20;;;34.00;52.30;;;;;;4986512;28;20172;-69
2022/08/10 11:04:55;;;;;;;3.28;1.20;;;33.90;54.10;;;;;;4970577;28;20048;-69
2022/08/10 11:07:26;;;;;;;2.05;1.13;;;34.20;53.20;;;;;;4974090;28;20053;-69
2022/08/10 11:09:56;;;;;;;1.60;0.98;;;34.40;52.40;;;;;;4963691;28;20065;-69
2022/08/10 11:12:33;;;;;;;1.85;0.77;;;34.40;51.30;;;;;;4968474;28;20045;-69
2022/08/10 11:15:03;;;;;;;3.10;1.05;;;34.40;52.60;;;;;;4956007;28;20157;-69
2022/08/10 11:17:32;;;;;;;2.40;1.00;;;34.50;51.80;;;;;;4966851;28;20038;-69
2022/08/10 11:20:08;;;;;;;5.15;0.82;;;34.30;50.70;;;;;;4986966;28;20290;-69
2022/08/10 11:22:42;;;;;;;2.50;0.73;;;34.00;50.40;;;;;;4983038;28;20214;-69
2022/08/10 11:25:13;;;;;;;2.17;0.95;;;34.00;49.30;;;;;;4982143;28;20121;-69
2022/08/10 11:27:47;;;;;;;1.33;0.90;;;34.00;50.40;;;;;;4970883;28;20053;-69
2022/08/10 11:30:18;;;;;;;3.17;1.15;;;34.20;50.70;;;;;;4963614;28;20046;-69
2022/08/10 11:33:03;;;;;;;4.90;1.15;;;34.30;50.50;;;;;;4968793;28;20039;-69
2022/08/10 11:35:39;;;;;;;3.90;0.90;;;34.40;50.50;;;;;;4986843;28;20165;-69
2022/08/10 11:38:14;;;;;;;1.10;0.63;;;34.30;47.90;;;;;;4982160;28;20053;-69
2022/08/10 11:40:45;;;;;;;1.95;1.10;;;34.10;47.60;;;;;;4985856;28;20062;-69
2022/08/10 11:43:22;;;;;;;1.52;1.00;;;34.10;48.40;;;;;;4964972;28;20118;-69
2022/08/10 11:45:53;;;;;;;3.60;1.00;;;34.30;48.00;;;;;;4964573;28;20053;-69
2022/08/10 11:48:29;;;;;;;2.42;1.00;;;34.20;48.60;;;;;;4985111;28;20049;-69
2022/08/10 11:50:59;;;;;;;2.17;1.00;;;34.10;49.60;;;;;;4983364;28;20050;-69
2022/08/10 11:53:30;;;;;;;2.85;0.98;;;34.20;50.00;;;;;;4980602;28;20046;-69
2022/08/10 11:55:57;;;;;;;2.90;1.10;;;34.20;49.30;;;;;;4966981;28;20048;-69
2022/08/10 12:01:16;;;;;;;2.13;0.80;;;34.00;47.00;;;;;;4969896;28;20043;-69
2022/08/10 12:03:45;;;;;;;3.63;1.00;;;33.60;49.00;;;;;;4969970;28;20046;-69
2022/08/10 12:06:15;;;;;;;2.80;1.00;;;33.60;49.80;;;;;;4986305;28;20093;-69
2022/08/10 12:08:43;;;;;;;3.22;0.98;;;33.50;47.60;;;;;;4959139;28;20054;-69
2022/08/10 12:11:11;;;;;;;3.67;1.00;;;33.50;47.30;;;;;;4978044;28;20057;-69
2022/08/10 12:13:42;;;;;;;3.60;1.00;;;33.60;47.70;;;;;;4968058;28;20133;-69
2022/08/10 12:16:13;;;;;;;3.40;0.82;;;33.50;47.70;;;;;;4984074;28;20067;-69
2022/08/10 12:18:46;;;;;;;1.45;0.80;;;33.40;47.20;;;;;;4984647;28;20510;-69
2022/08/10 12:21:18;;;;;;;3.38;1.20;;;33.50;47.30;;;;;;4971219;28;20054;-69
2022/08/10 12:23:49;;;;;;;1.65;0.90;;;33.40;47.20;;;;;;4987134;28;20034;-69
2022/08/10 12:26:18;;;;;;;1.95;0.93;;;33.40;47.20;;;;;;4971787;28;20129;-69
2022/08/10 12:28:49;;;;;;;2.75;0.98;;;33.40;47.00;;;;;;4971095;28;20046;-69
2022/08/10 12:31:18;;;;;;;2.33;1.00;;;33.40;47.90;;;;;;4971156;28;20093;-69
2022/08/10 12:33:49;;;;;;;1.40;0.70;;;33.60;48.50;;;;;;4989939;28;20092;-69
2022/08/10 12:36:22;;;;;;;4.85;1.27;;;33.70;47.90;;;;;;4972265;28;20042;-69
2022/08/10 12:38:56;;;;;;;2.78;0.95;;;33.80;48.70;;;;;;4966476;28;20567;-69
2022/08/10 12:41:24;;;;;;;3.58;0.82;;;33.90;48.00;;;;;;4969986;28;20050;-69
2022/08/10 12:43:55;;;;;;;4.05;0.90;;;33.80;47.70;;;;;;4968551;28;20046;-69
2022/08/10 12:46:31;;;;;;;2.70;1.02;;;33.80;46.00;;;;;;4968771;28;20125;-69
2022/08/10 12:49:05;;;;;;;0.70;0.70;;;33.60;45.90;;;;;;4972697;28;20038;-69
2022/08/10 12:51:34;;;;;;;2.83;1.02;;;33.50;46.60;;;;;;4983547;28;20038;-69
2022/08/10 12:54:07;;;;;;;3.63;0.98;;;33.60;46.70;;;;;;4987423;28;20574;-69
2022/08/10 12:56:37;;;;;;;2.97;1.00;;;33.60;46.70;;;;;;4987938;28;20098;-69
2022/08/10 12:59:04;;;;;;;4.72;1.10;;;33.60;47.00;;;;;;4983578;28;20042;-68
2022/08/10 13:01:33;;;;;;;3.83;1.05;;;33.60;45.80;;;;;;4970017;28;20258;-68
2022/08/10 13:04:02;;;;;;;3.65;0.90;;;33.50;45.70;;;;;;4953311;28;20066;-69
2022/08/10 13:06:29;;;;;;;1.45;0.85;;;33.40;46.30;;;;;;4969905;28;20174;-69
2022/08/10 13:09:11;;;;;;;4.45;1.00;;;33.40;46.70;;;;;;4963569;28;20244;-69